Time;durP1;ratioP1;P1;durP2;ratioP2;P2;SDS_P1;SDS_P2;PMS_P1;PMS_P2;Temp;Humidity;BMP_temperature;BMP_pressure;BME280_temperature;BME280_humidity;BME280_pressure;Samples;Min_cycle;Max_cycle;Signal;HPM_P1;HPM_P2
2022/06/24 00:01:40;;;;;;;1999.90;999.90;;;;;;;;;;5132526;27;20389;-75
2022/06/24 00:04:09;;;;;;;1999.90;999.90;;;;;;;;;;5135446;27;20856;-76
2022/06/24 00:06:47;;;;;;;1999.90;999.90;;;;;;;;;;5132113;27;20384;-76
2022/06/24 00:09:16;;;;;;;1999.90;999.90;;;;;;;;;;5128425;27;20413;-76
2022/06/24 00:11:45;;;;;;;1999.90;999.90;;;;;;;;;;5131612;27;20808;-75
2022/06/24 00:14:13;;;;;;;1999.90;999.90;;;;;;;;;;5117696;27;20413;-75
2022/06/24 00:16:52;;;;;;;1999.90;999.90;;;;;;;;;;5122889;27;20849;-75
2022/06/24 00:19:20;;;;;;;1999.90;999.90;;;;;;;;;;5130118;27;20392;-75
2022/06/24 00:21:57;;;;;;;1999.90;999.90;;;;;;;;;;5131327;27;20421;-78
2022/06/24 00:24:25;;;;;;;1999.90;999.90;;;;;;;;;;5126783;27;20463;-77
2022/06/24 00:26:54;;;;;;;1999.90;999.90;;;;;;;;;;5115756;27;20393;-74
2022/06/24 00:29:22;;;;;;;1999.90;999.90;;;;;;;;;;5130880;27;20392;-74
2022/06/24 00:32:04;;;;;;;1999.90;999.90;;;;;;;;;;5131277;27;20496;-75
2022/06/24 00:34:32;;;;;;;1999.90;999.90;;;;;;;;;;5135451;27;20417;-75
2022/06/24 00:37:15;;;;;;;1999.90;999.90;;;;;;;;;;5134141;27;20388;-75
2022/06/24 00:39:42;;;;;;;1999.90;999.90;;;;;;;;;;5130016;27;20488;-75
2022/06/24 00:42:12;;;;;;;1999.90;999.90;;;;;;;;;;5130876;27;20382;-76
2022/06/24 00:44:44;;;;;;;1999.90;999.90;;;;;;;;;;5134993;27;20402;-75
2022/06/24 00:47:15;;;;;;;1999.90;999.90;;;;;;;;;;5128824;27;20939;-76
2022/06/24 00:49:43;;;;;;;1999.90;999.90;;;;;;;;;;5131606;27;20401;-75
2022/06/24 00:52:11;;;;;;;1999.90;999.90;;;;;;;;;;5128881;27;21372;-74
2022/06/24 00:54:39;;;;;;;1999.90;999.90;;;;;;;;;;5129331;27;20403;-75
2022/06/24 00:57:07;;;;;;;1999.90;999.90;;;;;;;;;;5128023;27;20408;-75
2022/06/24 00:59:37;;;;;;;1999.90;999.90;;;;;;;;;;5135466;27;20901;-74
2022/06/24 01:02:06;;;;;;;1999.90;999.90;;;;;;;;;;5133411;27;20413;-74
2022/06/24 01:04:34;;;;;;;1999.90;999.90;;;;;;;;;;5133047;27;20394;-74
2022/06/24 01:07:02;;;;;;;1999.90;999.90;;;;;;;;;;5124928;27;20499;-75
2022/06/24 01:09:30;;;;;;;1999.90;999.90;;;;;;;;;;5126183;27;21598;-75
2022/06/24 01:11:57;;;;;;;1999.90;999.90;;;;;;;;;;5130027;27;20409;-74
2022/06/24 01:14:25;;;;;;;1999.90;999.90;;;;;;;;;;5131334;27;20530;-74
2022/06/24 01:16:54;;;;;;;1999.90;999.90;;;;;;;;;;5130528;27;20467;-75
2022/06/24 01:19:22;;;;;;;1999.90;999.90;;;;;;;;;;5134297;27;20392;-73
2022/06/24 01:21:51;;;;;;;1999.90;999.90;;;;;;;;;;5131239;27;20386;-74
2022/06/24 01:24:20;;;;;;;1999.90;999.90;;;;;;;;;;5135030;27;20518;-74
2022/06/24 01:26:48;;;;;;;1999.90;999.90;;;;;;;;;;5129316;27;20400;-74
2022/06/24 01:29:19;;;;;;;1999.90;999.90;;;;;;;;;;5132523;27;20823;-75
2022/06/24 01:31:48;;;;;;;1999.90;999.90;;;;;;;;;;5131899;27;20402;-74
2022/06/24 01:34:17;;;;;;;1999.90;999.90;;;;;;;;;;5135026;27;20415;-75
2022/06/24 01:36:45;;;;;;;1999.90;999.90;;;;;;;;;;5130106;27;20416;-75
2022/06/24 01:39:14;;;;;;;1999.90;999.90;;;;;;;;;;5133566;27;20393;-74
2022/06/24 01:41:42;;;;;;;1999.90;999.90;;;;;;;;;;5127865;27;21351;-72
2022/06/24 01:44:12;;;;;;;1999.90;999.90;;;;;;;;;;5127202;27;33573;-74
2022/06/24 01:46:40;;;;;;;1999.90;999.90;;;;;;;;;;5124743;27;20400;-73
2022/06/24 01:49:08;;;;;;;1999.90;999.90;;;;;;;;;;5124322;27;20397;-73
2022/06/24 01:51:36;;;;;;;1999.90;999.90;;;;;;;;;;5136995;27;20457;-74
2022/06/24 01:54:04;;;;;;;1999.90;999.90;;;;;;;;;;5128702;27;20407;-75
2022/06/24 01:56:33;;;;;;;1999.90;999.90;;;;;;;;;;5120861;27;20892;-74
2022/06/24 01:59:01;;;;;;;1999.90;999.90;;;;;;;;;;5127737;27;21043;-75
2022/06/24 02:01:29;;;;;;;1999.90;999.90;;;;;;;;;;5126504;27;20406;-74
2022/06/24 02:03:57;;;;;;;1999.90;999.90;;;;;;;;;;5122625;27;20811;-76
2022/06/24 02:06:25;;;;;;;1999.90;999.90;;;;;;;;;;5121826;27;20393;-75
2022/06/24 02:08:53;;;;;;;1999.90;999.90;;;;;;;;;;5124227;27;20441;-74
2022/06/24 02:14:09;;;;;;;1999.90;999.90;;;;;;;;;;5112517;27;20388;-75
2022/06/24 02:16:37;;;;;;;1999.90;999.90;;;;;;;;;;5126068;27;20401;-76
2022/06/24 02:19:06;;;;;;;1999.90;999.90;;;;;;;;;;5126637;27;20402;-75
2022/06/24 02:21:34;;;;;;;1999.90;999.90;;;;;;;;;;5128188;27;20397;-73
2022/06/24 02:24:01;;;;;;;1999.90;999.90;;;;;;;;;;5129895;27;20405;-74
2022/06/24 02:26:29;;;;;;;1999.90;999.90;;;;;;;;;;5128591;27;20452;-75
2022/06/24 02:28:57;;;;;;;1999.90;999.90;;;;;;;;;;5128084;27;20403;-74
2022/06/24 02:31:26;;;;;;;1999.90;999.90;;;;;;;;;;5130948;27;20407;-74
2022/06/24 02:33:54;;;;;;;1999.90;999.90;;;;;;;;;;5136809;27;20403;-76
2022/06/24 02:36:22;;;;;;;1999.90;999.90;;;;;;;;;;5131196;27;20423;-75
2022/06/24 02:38:50;;;;;;;1999.90;999.90;;;;;;;;;;5124227;27;20396;-75
2022/06/24 02:41:18;;;;;;;1999.90;999.90;;;;;;;;;;5129757;27;20389;-75
2022/06/24 02:43:46;;;;;;;1999.90;999.90;;;;;;;;;;5128859;27;20558;-75
2022/06/24 02:46:14;;;;;;;1999.90;999.90;;;;;;;;;;5129904;27;20395;-75
2022/06/24 02:48:43;;;;;;;1999.90;999.90;;;;;;;;;;5125973;27;20433;-75
2022/06/24 02:51:12;;;;;;;1999.90;999.90;;;;;;;;;;5126506;27;20392;-76
2022/06/24 02:53:41;;;;;;;1999.90;999.90;;;;;;;;;;5124911;27;20488;-73
2022/06/24 02:56:10;;;;;;;1999.90;999.90;;;;;;;;;;5126910;27;20882;-74
2022/06/24 02:58:38;;;;;;;1999.90;999.90;;;;;;;;;;5124938;27;20382;-74
2022/06/24 03:01:06;;;;;;;1999.90;999.90;;;;;;;;;;5133721;27;20408;-75
2022/06/24 03:03:34;;;;;;;1999.90;999.90;;;;;;;;;;5124020;27;20481;-74
2022/06/24 03:06:03;;;;;;;1999.90;999.90;;;;;;;;;;5127369;27;20389;-75
2022/06/24 03:08:31;;;;;;;1999.90;999.90;;;;;;;;;;5126344;27;20389;-75
2022/06/24 03:10:59;;;;;;;1999.90;999.90;;;;;;;;;;5134092;27;21284;-74
2022/06/24 03:13:28;;;;;;;1999.90;999.90;;;;;;;;;;5127796;27;20913;-76
2022/06/24 03:15:56;;;;;;;1999.90;999.90;;;;;;;;;;5132503;27;20394;-73
2022/06/24 03:18:24;;;;;;;1999.90;999.90;;;;;;;;;;5111879;27;20458;-75
2022/06/24 03:20:52;;;;;;;1999.90;999.90;;;;;;;;;;5127952;27;20388;-73
2022/06/24 03:23:21;;;;;;;1999.90;999.90;;;;;;;;;;5131451;27;20417;-74
2022/06/24 03:25:49;;;;;;;1999.90;999.90;;;;;;;;;;5131061;27;20415;-76
2022/06/24 03:28:17;;;;;;;1999.90;999.90;;;;;;;;;;5135378;27;20939;-74
2022/06/24 03:30:44;;;;;;;1999.90;999.90;;;;;;;;;;5120722;27;20389;-72
2022/06/24 03:33:12;;;;;;;1999.90;999.90;;;;;;;;;;5137379;27;20407;-73
2022/06/24 03:35:40;;;;;;;1999.90;999.90;;;;;;;;;;5131693;27;20381;-75
2022/06/24 03:38:08;;;;;;;1999.90;999.90;;;;;;;;;;5137351;27;20399;-76
2022/06/24 03:40:37;;;;;;;1999.90;999.90;;;;;;;;;;5130274;27;20428;-75
2022/06/24 03:43:05;;;;;;;1999.90;999.90;;;;;;;;;;5115572;27;20419;-74
2022/06/24 03:45:32;;;;;;;1999.90;999.90;;;;;;;;;;5132891;27;20426;-73
2022/06/24 03:48:00;;;;;;;1999.90;999.90;;;;;;;;;;5132626;27;20392;-75
2022/06/24 03:50:28;;;;;;;1999.90;999.90;;;;;;;;;;5125554;27;20408;-74
2022/06/24 03:52:56;;;;;;;1999.90;999.90;;;;;;;;;;5126505;27;20405;-73
2022/06/24 03:55:24;;;;;;;1999.90;999.90;;;;;;;;;;5134712;27;20483;-73
2022/06/24 03:57:53;;;;;;;1999.90;999.90;;;;;;;;;;5127199;27;20443;-73
2022/06/24 04:00:21;;;;;;;1999.90;999.90;;;;;;;;;;5115237;27;20399;-73
2022/06/24 04:02:48;;;;;;;1999.90;999.90;;;;;;;;;;5121082;27;20895;-73
2022/06/24 04:05:17;;;;;;;1999.90;999.90;;;;;;;;;;5127823;27;20431;-73
2022/06/24 04:07:44;;;;;;;1999.90;999.90;;;;;;;;;;5130958;27;20960;-73
2022/06/24 04:10:12;;;;;;;1999.90;999.90;;;;;;;;;;5126044;27;20389;-73
2022/06/24 04:12:40;;;;;;;1999.90;999.90;;;;;;;;;;5123987;27;20393;-73
2022/06/24 04:15:17;;;;;;;1999.90;999.90;;;;;;;;;;5131366;27;20878;-72
2022/06/24 04:17:46;;;;;;;1999.90;999.90;;;;;;;;;;5126151;27;20824;-73
2022/06/24 04:20:14;;;;;;;1999.90;999.90;;;;;;;;;;5139105;27;20399;-73
2022/06/24 04:22:42;;;;;;;1999.90;999.90;;;;;;;;;;5127013;27;20409;-72
2022/06/24 04:25:11;;;;;;;1999.90;999.90;;;;;;;;;;5128323;27;20399;-73
2022/06/24 04:27:39;;;;;;;1999.90;999.90;;;;;;;;;;5138484;27;20420;-73
2022/06/24 04:30:08;;;;;;;1999.90;999.90;;;;;;;;;;5126476;27;20453;-72
2022/06/24 04:32:37;;;;;;;1999.90;999.90;;;;;;;;;;5124187;27;20397;-73
2022/06/24 04:35:05;;;;;;;1999.90;999.90;;;;;;;;;;5123422;27;20474;-72
2022/06/24 04:37:35;;;;;;;1999.90;999.90;;;;;;;;;;5122504;27;20394;-72
2022/06/24 04:40:03;;;;;;;1999.90;999.90;;;;;;;;;;5131023;27;20977;-72
2022/06/24 04:42:33;;;;;;;1999.90;999.90;;;;;;;;;;5124547;27;20489;-72
2022/06/24 04:45:02;;;;;;;1999.90;999.90;;;;;;;;;;5125091;27;20402;-74
2022/06/24 04:47:30;;;;;;;1999.90;999.90;;;;;;;;;;5128095;27;21893;-74
2022/06/24 04:49:59;;;;;;;1999.90;999.90;;;;;;;;;;5129169;27;20886;-73
2022/06/24 04:52:26;;;;;;;1999.90;999.90;;;;;;;;;;5127895;27;20391;-73
2022/06/24 04:54:55;;;;;;;1999.90;999.90;;;;;;;;;;5126460;27;20838;-72
2022/06/24 04:57:23;;;;;;;1999.90;999.90;;;;;;;;;;5125376;27;20394;-73
2022/06/24 04:59:50;;;;;;;1999.90;999.90;;;;;;;;;;5133854;27;21462;-73
2022/06/24 05:02:18;;;;;;;1999.90;999.90;;;;;;;;;;5124524;27;20521;-73
2022/06/24 05:04:46;;;;;;;1999.90;999.90;;;;;;;;;;5131285;27;20396;-72
2022/06/24 05:07:15;;;;;;;1999.90;999.90;;;;;;;;;;5126547;27;20872;-74
2022/06/24 05:09:43;;;;;;;1999.90;999.90;;;;;;;;;;5128883;27;20406;-72
2022/06/24 05:12:11;;;;;;;1999.90;999.90;;;;;;;;;;5127396;27;20427;-74
2022/06/24 05:14:39;;;;;;;1999.90;999.90;;;;;;;;;;5123676;27;20394;-73
2022/06/24 05:17:13;;;;;;;1999.90;999.90;;;;;;;;;;5112050;27;20788;-73
2022/06/24 05:19:41;;;;;;;1999.90;999.90;;;;;;;;;;5130062;27;20388;-74
2022/06/24 05:22:09;;;;;;;1999.90;999.90;;;;;;;;;;5124847;27;20967;-75
2022/06/24 05:24:38;;;;;;;1999.90;999.90;;;;;;;;;;5124769;27;20485;-74
2022/06/24 05:27:06;;;;;;;1999.90;999.90;;;;;;;;;;5128192;27;20412;-73
2022/06/24 05:29:34;;;;;;;1999.90;999.90;;;;;;;;;;5123031;27;20393;-73
2022/06/24 05:32:01;;;;;;;1999.90;999.90;;;;;;;;;;5132295;27;20400;-74
2022/06/24 05:34:29;;;;;;;1999.90;999.90;;;;;;;;;;5123888;27;20956;-73
2022/06/24 05:36:57;;;;;;;1999.90;999.90;;;;;;;;;;5124821;27;20409;-76
2022/06/24 05:39:25;;;;;;;1999.90;999.90;;;;;;;;;;5132385;27;20850;-74
2022/06/24 05:41:54;;;;;;;1999.90;999.90;;;;;;;;;;5125567;27;20416;-74
2022/06/24 05:44:22;;;;;;;1999.90;999.90;;;;;;;;;;5127404;27;20485;-74
2022/06/24 05:46:51;;;;;;;1999.90;999.90;;;;;;;;;;5123674;27;20405;-75
2022/06/24 05:49:19;;;;;;;1999.90;999.90;;;;;;;;;;5127960;27;20410;-73
2022/06/24 05:51:47;;;;;;;1999.90;999.90;;;;;;;;;;5133549;27;20546;-73
2022/06/24 05:57:01;;;;;;;1999.90;999.90;;;;;;;;;;5128137;27;20388;-74
2022/06/24 05:59:29;;;;;;;1999.90;999.90;;;;;;;;;;5126757;27;20416;-74
2022/06/24 06:01:57;;;;;;;1999.90;999.90;;;;;;;;;;5127156;27;20391;-74
2022/06/24 06:04:24;;;;;;;1999.90;999.90;;;;;;;;;;5111279;27;20924;-75
2022/06/24 06:06:52;;;;;;;1999.90;999.90;;;;;;;;;;5123915;27;20401;-74
2022/06/24 06:09:20;;;;;;;1999.90;999.90;;;;;;;;;;5125960;27;20410;-72
2022/06/24 06:11:48;;;;;;;1999.90;999.90;;;;;;;;;;5132603;27;20410;-74
2022/06/24 06:14:17;;;;;;;1999.90;999.90;;;;;;;;;;5126692;27;20413;-73
2022/06/24 06:16:47;;;;;;;1999.90;999.90;;;;;;;;;;5129791;27;20385;-79
2022/06/24 06:19:15;;;;;;;1999.90;999.90;;;;;;;;;;5130082;27;20484;-75
2022/06/24 06:21:44;;;;;;;1999.90;999.90;;;;;;;;;;5129790;27;20479;-73
2022/06/24 06:24:11;;;;;;;1999.90;999.90;;;;;;;;;;5126626;27;21524;-74
2022/06/24 06:26:39;;;;;;;1999.90;999.90;;;;;;;;;;5134321;27;20398;-74
2022/06/24 06:29:12;;;;;;;1999.90;999.90;;;;;;;;;;5124490;27;20425;-74
2022/06/24 06:31:41;;;;;;;1999.90;999.90;;;;;;;;;;5127477;27;20455;-74
2022/06/24 06:34:09;;;;;;;1999.90;999.90;;;;;;;;;;5124670;27;20389;-75
2022/06/24 06:36:37;;;;;;;1999.90;999.90;;;;;;;;;;5133470;27;21073;-74
2022/06/24 06:39:04;;;;;;;1999.90;999.90;;;;;;;;;;5127314;27;20386;-74
2022/06/24 06:41:32;;;;;;;1999.90;999.90;;;;;;;;;;5141829;27;21581;-76
2022/06/24 06:44:00;;;;;;;1999.90;999.90;;;;;;;;;;5131447;27;20391;-74
2022/06/24 06:46:29;;;;;;;1999.90;999.90;;;;;;;;;;5123904;27;20417;-71
2022/06/24 06:48:58;;;;;;;1999.90;999.90;;;;;;;;;;5131968;27;20463;-73
2022/06/24 06:51:26;;;;;;;1999.90;999.90;;;;;;;;;;5130474;27;20404;-74
2022/06/24 06:53:54;;;;;;;1999.90;999.90;;;;;;;;;;5129671;27;20413;-73
2022/06/24 06:56:21;;;;;;;1999.90;999.90;;;;;;;;;;5130963;27;20401;-73
2022/06/24 06:58:49;;;;;;;1999.90;999.90;;;;;;;;;;5131657;27;20397;-75
2022/06/24 07:01:17;;;;;;;1999.90;999.90;;;;;;;;;;5133551;27;20374;-73
2022/06/24 07:03:45;;;;;;;1999.90;999.90;;;;;;;;;;5128415;27;20393;-73
2022/06/24 07:06:14;;;;;;;1999.90;999.90;;;;;;;;;;5135922;27;20387;-74
2022/06/24 07:08:41;;;;;;;1999.90;999.90;;;;;;;;;;5130748;27;20686;-75
2022/06/24 07:11:12;;;;;;;1999.90;999.90;;;;;;;;;;5131803;27;20432;-75
2022/06/24 07:13:40;;;;;;;1999.90;999.90;;;;;;;;;;5127004;27;20400;-75
2022/06/24 07:16:11;;;;;;;1999.90;999.90;;;;;;;;;;5132657;27;20399;-75
2022/06/24 07:18:39;;;;;;;1999.90;999.90;;;;;;;;;;5128506;27;20389;-73
2022/06/24 07:21:07;;;;;;;1999.90;999.90;;;;;;;;;;5138852;27;20412;-74
2022/06/24 07:23:36;;;;;;;1999.90;999.90;;;;;;;;;;5126594;27;20388;-74
2022/06/24 07:26:04;;;;;;;1999.90;999.90;;;;;;;;;;5131972;27;20411;-73
2022/06/24 07:28:32;;;;;;;1999.90;999.90;;;;;;;;;;5132588;27;20463;-74
2022/06/24 07:30:59;;;;;;;1999.90;999.90;;;;;;;;;;5127016;27;20916;-74
2022/06/24 07:33:27;;;;;;;1999.90;999.90;;;;;;;;;;5133718;27;20398;-74
2022/06/24 07:35:55;;;;;;;1999.90;999.90;;;;;;;;;;5134733;27;20397;-74
2022/06/24 07:38:23;;;;;;;1999.90;999.90;;;;;;;;;;5132164;27;20596;-74
2022/06/24 07:40:55;;;;;;;1999.90;999.90;;;;;;;;;;5112222;27;20403;-73
2022/06/24 07:43:23;;;;;;;1999.90;999.90;;;;;;;;;;5133348;27;21066;-73
2022/06/24 07:45:51;;;;;;;1999.90;999.90;;;;;;;;;;5129913;27;20479;-73
2022/06/24 07:48:19;;;;;;;1999.90;999.90;;;;;;;;;;5132219;27;20401;-73
2022/06/24 07:50:47;;;;;;;1999.90;999.90;;;;;;;;;;5131894;27;20401;-72
2022/06/24 07:53:15;;;;;;;1999.90;999.90;;;;;;;;;;5136738;27;20395;-75
2022/06/24 07:58:29;;;;;;;1999.90;999.90;;;;;;;;;;5135753;27;20358;-72
2022/06/24 08:00:57;;;;;;;1999.90;999.90;;;;;;;;;;5135693;27;20438;-74
2022/06/24 08:03:25;;;;;;;1999.90;999.90;;;;;;;;;;5132698;27;20414;-73
2022/06/24 08:05:53;;;;;;;1999.90;999.90;;;;;;;;;;5134310;27;20400;-72
2022/06/24 08:08:20;;;;;;;1999.90;999.90;;;;;;;;;;5128769;27;20407;-75
2022/06/24 08:10:49;;;;;;;1999.90;999.90;;;;;;;;;;5130055;27;20402;-73
2022/06/24 08:13:16;;;;;;;1999.90;999.90;;;;;;;;;;5133183;27;20490;-73
2022/06/24 08:15:45;;;;;;;1999.90;999.90;;;;;;;;;;5129450;27;20388;-75
2022/06/24 08:18:13;;;;;;;1999.90;999.90;;;;;;;;;;5130502;27;20402;-73
2022/06/24 08:20:41;;;;;;;1999.90;999.90;;;;;;;;;;5137916;27;20412;-72
2022/06/24 08:23:09;;;;;;;1999.90;999.90;;;;;;;;;;5126051;27;20842;-72
2022/06/24 08:25:37;;;;;;;1999.90;999.90;;;;;;;;;;5120464;27;20394;-75
2022/06/24 08:28:05;;;;;;;1999.90;999.90;;;;;;;;;;5134029;27;20390;-72
2022/06/24 08:30:34;;;;;;;1999.90;999.90;;;;;;;;;;5113523;27;20399;-73
2022/06/24 08:33:03;;;;;;;1999.90;999.90;;;;;;;;;;5127233;27;20396;-72
2022/06/24 08:35:31;;;;;;;1999.90;999.90;;;;;;;;;;5135765;27;20862;-72
2022/06/24 08:37:59;;;;;;;1999.90;999.90;;;;;;;;;;5135903;27;20431;-74
2022/06/24 08:40:27;;;;;;;1999.90;999.90;;;;;;;;;;5130952;27;20481;-75
2022/06/24 08:42:56;;;;;;;1999.90;999.90;;;;;;;;;;5128667;27;20391;-73
2022/06/24 08:45:25;;;;;;;1999.90;999.90;;;;;;;;;;5134716;27;20389;-72
2022/06/24 08:47:53;;;;;;;1999.90;999.90;;;;;;;;;;5147376;27;20429;-73
2022/06/24 08:50:22;;;;;;;1999.90;999.90;;;;;;;;;;5128680;27;20467;-74
2022/06/24 08:52:51;;;;;;;1999.90;999.90;;;;;;;;;;5135548;27;20380;-72
2022/06/24 08:55:24;;;;;;;1999.90;999.90;;;;;;;;;;5127155;27;20498;-74
2022/06/24 08:57:52;;;;;;;1999.90;999.90;;;;;;;;;;5109686;27;20378;-73
2022/06/24 09:00:21;;;;;;;1999.90;999.90;;;;;;;;;;5130151;27;20405;-73
2022/06/24 09:02:49;;;;;;;1999.90;999.90;;;;;;;;;;5138403;27;20373;-73
2022/06/24 09:05:17;;;;;;;1999.90;999.90;;;;;;;;;;5126861;27;20777;-72
2022/06/24 09:07:46;;;;;;;1999.90;999.90;;;;;;;;;;5126473;27;20422;-73
2022/06/24 09:10:15;;;;;;;1999.90;999.90;;;;;;;;;;5107765;27;20394;-72
2022/06/24 09:12:43;;;;;;;1999.90;999.90;;;;;;;;;;5137224;27;20399;-73
2022/06/24 09:15:12;;;;;;;1999.90;999.90;;;;;;;;;;5124089;27;20389;-75
2022/06/24 09:17:40;;;;;;;1999.90;999.90;;;;;;;;;;5130017;27;20894;-75
2022/06/24 09:20:09;;;;;;;1999.90;999.90;;;;;;;;;;5128608;27;20406;-73
2022/06/24 09:23:06;;;;;;;1999.90;999.90;;;;;;;;;;5123822;27;20889;-73
2022/06/24 09:25:44;;;;;;;1999.90;999.90;;;;;;;;;;5125725;27;20944;-73
2022/06/24 09:28:13;;;;;;;1999.90;999.90;;;;;;;;;;5134559;27;20408;-74
2022/06/24 09:30:41;;;;;;;1999.90;999.90;;;;;;;;;;5129044;27;20866;-73
2022/06/24 09:33:15;;;;;;;1999.90;999.90;;;;;;;;;;5127448;27;20399;-73
2022/06/24 09:36:00;;;;;;;1999.90;999.90;;;;;;;;;;5131629;27;20382;-73
2022/06/24 09:38:29;;;;;;;1999.90;999.90;;;;;;;;;;5133750;27;20389;-74
2022/06/24 09:41:00;;;;;;;1999.90;999.90;;;;;;;;;;5127293;27;20828;-75
2022/06/24 09:43:30;;;;;;;1999.90;999.90;;;;;;;;;;5113105;27;20397;-73
2022/06/24 09:45:58;;;;;;;1999.90;999.90;;;;;;;;;;5130227;27;20397;-73
2022/06/24 09:48:27;;;;;;;1999.90;999.90;;;;;;;;;;5126949;27;20907;-75
2022/06/24 09:50:56;;;;;;;1999.90;999.90;;;;;;;;;;5127943;27;20519;-72
2022/06/24 09:53:25;;;;;;;1999.90;999.90;;;;;;;;;;5123866;27;20389;-75
2022/06/24 09:55:54;;;;;;;1999.90;999.90;;;;;;;;;;5126478;27;20872;-74
2022/06/24 09:58:22;;;;;;;1999.90;999.90;;;;;;;;;;5129997;27;21224;-75
2022/06/24 10:00:49;;;;;;;1999.90;999.90;;;;;;;;;;5131138;27;20410;-74
2022/06/24 10:03:17;;;;;;;1999.90;999.90;;;;;;;;;;5127357;27;20488;-75
2022/06/24 10:05:46;;;;;;;1999.90;999.90;;;;;;;;;;5125689;27;20437;-76
2022/06/24 10:08:15;;;;;;;1999.90;999.90;;;;;;;;;;5128629;27;20402;-74
2022/06/24 10:10:45;;;;;;;1999.90;999.90;;;;;;;;;;5128933;27;20474;-74
2022/06/24 10:13:23;;;;;;;1999.90;999.90;;;;;;;;;;5128276;27;20741;-74
2022/06/24 10:15:51;;;;;;;1999.90;999.90;;;;;;;;;;5127418;27;20382;-74
2022/06/24 10:18:20;;;;;;;1999.90;999.90;;;;;;;;;;5128304;27;20435;-75
2022/06/24 10:20:49;;;;;;;1999.90;999.90;;;;;;;;;;5127312;27;21135;-76
2022/06/24 10:23:36;;;;;;;1999.90;999.90;;;;;;;;;;5127890;27;20392;-73
2022/06/24 10:26:16;;;;;;;1999.90;999.90;;;;;;;;;;5139179;27;20402;-74
2022/06/24 10:29:17;;;;;;;1999.90;999.90;;;;;;;;;;5126081;27;20381;-74
2022/06/24 10:32:08;;;;;;;1999.90;999.90;;;;;;;;;;5126865;27;20409;-74
2022/06/24 10:34:41;;;;;;;1999.90;999.90;;;;;;;;;;5112276;27;20388;-73
2022/06/24 10:37:23;;;;;;;1999.90;999.90;;;;;;;;;;5133383;27;20448;-74
2022/06/24 10:39:52;;;;;;;1999.90;999.90;;;;;;;;;;5119407;27;21785;-72
2022/06/24 10:42:21;;;;;;;1999.90;999.90;;;;;;;;;;5125578;27;20410;-76
2022/06/24 10:44:54;;;;;;;1999.90;999.90;;;;;;;;;;5128442;27;20418;-74
2022/06/24 10:47:27;;;;;;;1999.90;999.90;;;;;;;;;;5122618;27;20983;-74
2022/06/24 10:50:13;;;;;;;1999.90;999.90;;;;;;;;;;5129673;27;20408;-74
2022/06/24 10:52:45;;;;;;;1999.90;999.90;;;;;;;;;;5123671;27;20401;-77
2022/06/24 10:55:30;;;;;;;1999.90;999.90;;;;;;;;;;5131066;27;20403;-74
2022/06/24 10:57:59;;;;;;;1999.90;999.90;;;;;;;;;;5124965;27;20443;-74
2022/06/24 11:00:28;;;;;;;1999.90;999.90;;;;;;;;;;5127016;27;20433;-74
2022/06/24 11:02:58;;;;;;;1999.90;999.90;;;;;;;;;;5120591;27;20452;-74
2022/06/24 11:05:30;;;;;;;1999.90;999.90;;;;;;;;;;5128409;27;21534;-74
2022/06/24 11:07:58;;;;;;;1999.90;999.90;;;;;;;;;;5127023;27;20413;-75
2022/06/24 11:10:29;;;;;;;1999.90;999.90;;;;;;;;;;5122175;27;20389;-74
2022/06/24 11:12:58;;;;;;;1999.90;999.90;;;;;;;;;;5131526;27;20514;-76
2022/06/24 11:15:34;;;;;;;1999.90;999.90;;;;;;;;;;5122605;27;20811;-76
2022/06/24 11:18:05;;;;;;;1999.90;999.90;;;;;;;;;;5131665;27;20411;-74
2022/06/24 11:20:37;;;;;;;1999.90;999.90;;;;;;;;;;5123886;27;20398;-73
2022/06/24 11:23:08;;;;;;;1999.90;999.90;;;;;;;;;;5131764;27;20597;-74
2022/06/24 11:25:37;;;;;;;1999.90;999.90;;;;;;;;;;5131911;27;20409;-75
2022/06/24 11:28:04;;;;;;;1999.90;999.90;;;;;;;;;;5132605;27;20405;-77
2022/06/24 11:30:32;;;;;;;1999.90;999.90;;;;;;;;;;5126567;27;20425;-75
2022/06/24 11:33:01;;;;;;;1999.90;999.90;;;;;;;;;;5122560;27;21179;-74
2022/06/24 11:35:30;;;;;;;1999.90;999.90;;;;;;;;;;5126682;27;20473;-74
2022/06/24 11:37:59;;;;;;;1999.90;999.90;;;;;;;;;;5128113;27;20413;-74
2022/06/24 11:40:28;;;;;;;1999.90;999.90;;;;;;;;;;5129214;27;20477;-74
2022/06/24 11:42:56;;;;;;;1999.90;999.90;;;;;;;;;;5134026;27;21154;-75
2022/06/24 11:45:34;;;;;;;1999.90;999.90;;;;;;;;;;5124861;27;20416;-73
2022/06/24 11:48:02;;;;;;;1999.90;999.90;;;;;;;;;;5123845;27;20439;-74
2022/06/24 11:50:30;;;;;;;1999.90;999.90;;;;;;;;;;5138401;27;20923;-74
2022/06/24 11:52:59;;;;;;;1999.90;999.90;;;;;;;;;;5135390;27;20414;-73
2022/06/24 11:55:33;;;;;;;1999.90;999.90;;;;;;;;;;5130798;27;20382;-75
2022/06/24 11:58:01;;;;;;;1999.90;999.90;;;;;;;;;;5136963;27;20399;-73
2022/06/24 12:00:32;;;;;;;1999.90;999.90;;;;;;;;;;5128363;27;20484;-73
2022/06/24 12:03:00;;;;;;;1999.90;999.90;;;;;;;;;;5134625;27;20971;-73
2022/06/24 12:05:30;;;;;;;1999.90;999.90;;;;;;;;;;5127669;27;20398;-73
2022/06/24 12:07:59;;;;;;;1999.90;999.90;;;;;;;;;;5130433;27;20514;-74
2022/06/24 12:10:28;;;;;;;1999.90;999.90;;;;;;;;;;5130840;27;20398;-74
2022/06/24 12:13:00;;;;;;;1999.90;999.90;;;;;;;;;;5125812;27;20404;-74
2022/06/24 12:15:34;;;;;;;1999.90;999.90;;;;;;;;;;5125273;27;20997;-71
2022/06/24 12:18:02;;;;;;;1999.90;999.90;;;;;;;;;;5128028;27;20424;-76
2022/06/24 12:20:30;;;;;;;1999.90;999.90;;;;;;;;;;5131642;27;20390;-76
2022/06/24 12:23:14;;;;;;;1999.90;999.90;;;;;;;;;;5126181;27;20381;-73
2022/06/24 12:25:44;;;;;;;1999.90;999.90;;;;;;;;;;5137523;27;20391;-74
2022/06/24 12:28:13;;;;;;;1999.90;999.90;;;;;;;;;;5129252;27;20384;-75
2022/06/24 12:30:40;;;;;;;1999.90;999.90;;;;;;;;;;5125228;27;21307;-75
2022/06/24 12:33:11;;;;;;;1999.90;999.90;;;;;;;;;;5142479;27;20406;-75
2022/06/24 12:35:41;;;;;;;1999.90;999.90;;;;;;;;;;5133631;27;20894;-74
2022/06/24 12:38:19;;;;;;;1999.90;999.90;;;;;;;;;;5146481;27;20414;-76
2022/06/24 12:40:48;;;;;;;1999.90;999.90;;;;;;;;;;5132677;27;20477;-75
2022/06/24 12:43:16;;;;;;;1999.90;999.90;;;;;;;;;;5130856;27;20436;-76
2022/06/24 12:45:44;;;;;;;1999.90;999.90;;;;;;;;;;5123172;27;20851;-75
2022/06/24 12:50:58;;;;;;;1999.90;999.90;;;;;;;;;;5125299;27;20380;-74
2022/06/24 12:53:26;;;;;;;1999.90;999.90;;;;;;;;;;5130128;27;20397;-75
2022/06/24 12:55:55;;;;;;;1999.90;999.90;;;;;;;;;;5115119;27;20390;-72
2022/06/24 12:58:23;;;;;;;1999.90;999.90;;;;;;;;;;5105908;27;20475;-71
2022/06/24 13:00:51;;;;;;;1999.90;999.90;;;;;;;;;;5111486;27;20429;-69
2022/06/24 13:03:20;;;;;;;1999.90;999.90;;;;;;;;;;5111135;27;20402;-70
2022/06/24 13:05:48;;;;;;;1999.90;999.90;;;;;;;;;;5126052;27;20768;-69
2022/06/24 13:08:16;;;;;;;1999.90;999.90;;;;;;;;;;5128662;27;20807;-68
2022/06/24 13:10:44;;;;;;;1999.90;999.90;;;;;;;;;;5126971;27;20401;-71
2022/06/24 13:13:13;;;;;;;1999.90;999.90;;;;;;;;;;5125205;27;20440;-69
2022/06/24 13:15:41;;;;;;;1999.90;999.90;;;;;;;;;;5123524;27;20408;-70
2022/06/24 13:18:08;;;;;;;1999.90;999.90;;;;;;;;;;5128709;27;20396;-70
2022/06/24 13:20:36;;;;;;;1999.90;999.90;;;;;;;;;;5129745;27;20390;-70
2022/06/24 13:23:04;;;;;;;1999.90;999.90;;;;;;;;;;5125642;27;20398;-70
2022/06/24 13:25:32;;;;;;;1999.90;999.90;;;;;;;;;;5118189;27;20482;-71
2022/06/24 13:28:00;;;;;;;1999.90;999.90;;;;;;;;;;5127868;27;20487;-71
2022/06/24 13:30:29;;;;;;;1999.90;999.90;;;;;;;;;;5133142;27;20390;-70
2022/06/24 13:32:57;;;;;;;1999.90;999.90;;;;;;;;;;5124943;27;20889;-70
2022/06/24 13:35:25;;;;;;;1999.90;999.90;;;;;;;;;;5127318;27;20374;-71
2022/06/24 13:37:52;;;;;;;1999.90;999.90;;;;;;;;;;5131057;27;20414;-71
2022/06/24 13:40:20;;;;;;;1999.90;999.90;;;;;;;;;;5128213;27;20422;-71
2022/06/24 13:42:48;;;;;;;1999.90;999.90;;;;;;;;;;5129174;27;20421;-73
2022/06/24 13:45:16;;;;;;;1999.90;999.90;;;;;;;;;;5108877;27;20882;-73
2022/06/24 13:47:45;;;;;;;1999.90;999.90;;;;;;;;;;5125983;27;20414;-72
2022/06/24 13:50:13;;;;;;;1999.90;999.90;;;;;;;;;;5124596;27;20408;-72
2022/06/24 13:52:41;;;;;;;1999.90;999.90;;;;;;;;;;5120110;27;20408;-70
2022/06/24 13:55:09;;;;;;;1999.90;999.90;;;;;;;;;;5121623;27;20442;-69
2022/06/24 13:57:36;;;;;;;1999.90;999.90;;;;;;;;;;5132061;27;20463;-69
2022/06/24 14:00:06;;;;;;;1999.90;999.90;;;;;;;;;;5128710;27;20980;-69
2022/06/24 14:02:40;;;;;;;1999.90;999.90;;;;;;;;;;5104962;27;20390;-69
2022/06/24 14:05:09;;;;;;;1999.90;999.90;;;;;;;;;;5130557;27;21665;-69